Langara, Canada
Current Conditions -  °F | °C
As of 5:16 AM on Wednesday 22 Oct 2014 (Local Time) from PAHY Reporting Station
Overcast Overcast  
Wind Chill: 50°   Ceiling: 4700
Heat Index: 50°   Visibility: 10mi
Dew Point: 39°   Wind: 26mph
Humidity: 66%   Direction: 70°ENE
Pressure: 29.25"   Gusts: 32mph
Location:  54.23°N, 133°W
Report Text: PAHY 221216Z AUTO 07023G28KT 10SM SCT037 BKN047 OVC080 10/04 A2925 RMK AO1
Loading
Personal Weather Stations






























Interactive Weather Map
Tropical Storm Tracking
New forecast layout! Learn more

10-Day Weather Forecast

Advertisements
Track Severe Weather on mobile